< < Back
Terminal Aerodrome Forecast


Current Version              Previous Versions:   1  2  3  4  5  6  7  8  9  

Terminal Aerodrome Forecast

573
FTUS44 KMOB 190549
TAFMOB
TAF
KMOB 190549Z 1906/2006 18007KT P6SM BKN120
     FM190900 18007KT P6SM VCTS FEW012 OVC040CB
      TEMPO 1909/1912 3SM TSRA SCT009 BKN025CB
     FM191200 21008KT P6SM BKN009 OVC025
     FM191800 20015KT P6SM FEW050=



Latest METAR

731
SAUS80 KWBC 191100
MTRMOB
METAR KMOB 191056Z 21003KT 7SM SCT023 BKN038 21/21 A2977 RMK AO2 LTG
DSNT SE AND S SLP077 T02110206


USA.gov is the U.S. government's official web portal to all federal, state and local government web resources and services.